Portada
METAR-TAF:

METAR-TAF

Aeropuertos :

Cascaes, Portugal

latitud: 38-43-32N, longitud: 009-21-19W, altitud: 99 m

Observación

El informe se hizo hace 28 minutos, a las 15:30 UTC
Viento 8 kt del sur-suroeste, variando entre sur-sureste y oeste-suroeste
Temperatura 14°C
Humedad 63%
Presión 1006 hPa
Visibilidad 10 km o más
Escasas nubes a una altura de 2500 ft

METAR: LPCS 241530Z 21008KT 150V240 9999 FEW025 14/07 Q1006

Hora: 15:58 (15:58 UTC)


TAF: falta

Observaciones y pronósticos meteorológicos de más de 4000 aeropuertos (mensajes METAR y TAF).

Los puntos amarillos y rojos representan las estaciones disponibles.

Ponga el ratón en el punto deseado para ver el nombre de la estación.

Haga clic para ver las observaciones y los pronósticos meteorológicos.

Para cambiar el mapa : haga clic en los botones verdes con una cruz de color negro para hacer un zoom, en el botón verde con un guión para alejar o en las flechas verdes para mapas adyacentes.


METAR-TAF: